Time;durP1;ratioP1;P1;durP2;ratioP2;P2;SDS_P1;SDS_P2;PMS_P1;PMS_P2;Temp;Humidity;BMP_temperature;BMP_pressure;BME280_temperature;BME280_humidity;BME280_pressure;Samples;Min_cycle;Max_cycle;Signal;HPM_P1;HPM_P2
2024/01/21 00:01:06;;;;;;;;;;;;;;;0.68;45.69;101366.34;4950218;28;6788;-71
2024/01/21 00:03:32;;;;;;;;;;;;;;;0.75;45.74;101365.34;4950234;28;6776;-72
2024/01/21 00:05:58;;;;;;;;;;;;;;;0.82;46.32;101366.88;4970885;28;6792;-72
2024/01/21 00:08:23;;;;;;;;;;;;;;;0.86;46.09;101351.28;4946518;28;6998;-73
2024/01/21 00:10:49;;;;;;;;;;;;;;;0.93;46.23;101356.22;4952358;28;6772;-73
2024/01/21 00:13:14;;;;;;;;;;;;;;;0.98;46.02;101348.25;4939315;28;6973;-71
2024/01/21 00:15:40;;;;;;;;;;;;;;;1.03;46.23;101347.06;4968154;28;6780;-72
2024/01/21 00:18:05;;;;;;;;;;;;;;;1.08;45.77;101340.88;4972001;28;6911;-73
2024/01/21 00:20:32;;;;;;;;;;;;;;;1.14;46.01;101338.94;4947484;28;6796;-71
2024/01/21 00:22:58;;;;;;;;;;;;;;;1.18;45.61;101328.44;4969902;28;6804;-73
2024/01/21 00:25:23;;;;;;;;;;;;;;;1.22;46.29;101327.97;4967005;28;7140;-71
2024/01/21 00:27:49;;;;;;;;;;;;;;;1.28;46.21;101322.66;4951125;28;6842;-71
2024/01/21 00:30:15;;;;;;;;;;;;;;;1.32;45.56;101313.75;4970878;28;6779;-72
2024/01/21 00:32:40;;;;;;;;;;;;;;;1.36;45.66;101300.69;4969038;28;7975;-73
2024/01/21 00:35:06;;;;;;;;;;;;;;;1.39;45.91;101303.53;4972057;28;6776;-72
2024/01/21 00:37:32;;;;;;;;;;;;;;;1.41;46.10;101289.41;4968567;28;7441;-72
2024/01/21 00:39:58;;;;;;;;;;;;;;;1.42;45.58;101283.59;4969888;28;6851;-73
2024/01/21 00:42:23;;;;;;;;;;;;;;;1.44;46.09;101271.13;4954621;28;6848;-71
2024/01/21 00:44:49;;;;;;;;;;;;;;;1.47;45.51;101272.34;4967556;28;6772;-73
2024/01/21 00:47:15;;;;;;;;;;;;;;;1.49;45.64;101265.78;4965188;28;7211;-73
2024/01/21 00:49:41;;;;;;;;;;;;;;;1.51;45.38;101266.81;4950600;28;6968;-74
2024/01/21 00:52:06;;;;;;;;;;;;;;;1.54;45.98;101263.72;4948047;28;6784;-74
2024/01/21 00:54:32;;;;;;;;;;;;;;;1.57;46.16;101263.13;4964668;28;6784;-73
2024/01/21 00:56:58;;;;;;;;;;;;;;;1.59;46.11;101254.06;4970419;28;6772;-74
2024/01/21 00:59:24;;;;;;;;;;;;;;;1.59;46.08;101254.94;4949019;28;6773;-74
2024/01/21 01:01:49;;;;;;;;;;;;;;;1.62;46.12;101249.28;4949146;28;6868;-74
2024/01/21 01:04:15;;;;;;;;;;;;;;;1.62;46.47;101242.63;4967620;28;6852;-74
2024/01/21 01:06:40;;;;;;;;;;;;;;;1.61;46.30;101240.84;4947692;28;6972;-74
2024/01/21 01:09:06;;;;;;;;;;;;;;;1.62;45.82;101234.13;4961123;28;8840;-74
2024/01/21 01:11:32;;;;;;;;;;;;;;;1.62;45.66;101239.19;4950643;28;6852;-74
2024/01/21 01:13:57;;;;;;;;;;;;;;;1.61;46.45;101228.19;4965181;28;6840;-74
2024/01/21 01:16:23;;;;;;;;;;;;;;;1.60;46.30;101220.47;4933867;28;7029;-74
2024/01/21 01:18:49;;;;;;;;;;;;;;;1.60;45.69;101221.38;4965826;28;6959;-74
2024/01/21 01:21:15;;;;;;;;;;;;;;;1.60;45.61;101233.09;4948732;28;6791;-74
2024/01/21 01:23:40;;;;;;;;;;;;;;;1.59;45.74;101228.78;4928081;28;6955;-74
2024/01/21 01:26:07;;;;;;;;;;;;;;;1.56;45.91;101228.50;4948294;28;7226;-74
2024/01/21 01:28:33;;;;;;;;;;;;;;;1.54;46.17;101238.44;4949148;28;6939;-73
2024/01/21 01:30:59;;;;;;;;;;;;;;;1.53;46.11;101240.06;4964220;28;6817;-73
2024/01/21 01:33:25;;;;;;;;;;;;;;;1.54;46.17;101238.44;4963309;28;7046;-74
2024/01/21 01:35:50;;;;;;;;;;;;;;;1.53;46.78;101239.19;4947286;28;7035;-74
2024/01/21 01:38:16;;;;;;;;;;;;;;;1.53;46.71;101231.63;4947617;28;6773;-74
2024/01/21 01:40:42;;;;;;;;;;;;;;;1.51;46.52;101235.63;4963295;28;6795;-74
2024/01/21 01:43:09;;;;;;;;;;;;;;;1.50;46.18;101236.38;4948377;28;7365;-74
2024/01/21 01:45:35;;;;;;;;;;;;;;;1.47;46.66;101229.38;4962525;28;6788;-74
2024/01/21 01:48:03;;;;;;;;;;;;;;;1.44;46.84;101241.69;4931012;28;8032;-74
2024/01/21 01:50:31;;;;;;;;;;;;;;;1.43;46.70;101234.84;4961668;28;6796;-74
2024/01/21 01:52:59;;;;;;;;;;;;;;;1.38;46.64;101234.41;4947169;28;6788;-74
2024/01/21 01:55:25;;;;;;;;;;;;;;;1.35;46.09;101233.22;4941557;28;7024;-74
2024/01/21 01:57:51;;;;;;;;;;;;;;;1.29;46.99;101222.53;4946621;28;7151;-73
2024/01/21 02:00:17;;;;;;;;;;;;;;;1.20;46.69;101210.78;4947641;28;6988;-74
2024/01/21 02:02:43;;;;;;;;;;;;;;;1.14;46.60;101206.75;4929599;28;7205;-73
2024/01/21 02:05:09;;;;;;;;;;;;;;;1.08;46.64;101194.41;4929865;28;7042;-73
2024/01/21 02:07:34;;;;;;;;;;;;;;;1.03;47.07;101198.09;4944743;28;6788;-73
2024/01/21 02:10:01;;;;;;;;;;;;;;;0.97;46.60;101193.34;4945766;28;7058;-73
2024/01/21 02:12:28;;;;;;;;;;;;;;;0.91;47.20;101193.63;4945531;28;6784;-73
2024/01/21 02:14:54;;;;;;;;;;;;;;;0.83;46.38;101184.41;4948445;28;6804;-73
2024/01/21 02:17:20;;;;;;;;;;;;;;;0.78;46.91;101190.63;4961839;28;6855;-73
2024/01/21 02:19:45;;;;;;;;;;;;;;;0.73;46.79;101181.69;4962952;28;7272;-73
2024/01/21 02:22:12;;;;;;;;;;;;;;;0.67;47.31;101174.41;4962335;28;6784;-73
2024/01/21 02:24:39;;;;;;;;;;;;;;;0.62;47.28;101166.38;4962301;28;6984;-73
2024/01/21 02:27:04;;;;;;;;;;;;;;;0.57;47.09;101149.00;4942895;28;6860;-73
2024/01/21 02:29:30;;;;;;;;;;;;;;;0.53;46.96;101147.78;4946452;28;6925;-73
2024/01/21 02:31:58;;;;;;;;;;;;;;;0.48;46.96;101141.38;4962317;28;6784;-73
2024/01/21 02:34:23;;;;;;;;;;;;;;;0.45;47.19;101138.56;4964726;28;6852;-73
2024/01/21 02:36:49;;;;;;;;;;;;;;;0.41;46.98;101135.75;4942397;28;6969;-73
2024/01/21 02:39:15;;;;;;;;;;;;;;;0.39;47.29;101136.31;4930731;28;6962;-73
2024/01/21 02:41:41;;;;;;;;;;;;;;;0.35;47.59;101132.59;4962553;28;6769;-73
2024/01/21 02:44:06;;;;;;;;;;;;;;;0.33;47.09;101128.13;4963267;28;6776;-73
2024/01/21 02:46:32;;;;;;;;;;;;;;;0.32;46.97;101128.88;4961557;28;6936;-73
2024/01/21 02:48:58;;;;;;;;;;;;;;;0.31;47.61;101120.41;4955201;28;7520;-73
2024/01/21 02:51:23;;;;;;;;;;;;;;;0.35;47.10;101124.16;4948124;28;6852;-73
2024/01/21 02:53:50;;;;;;;;;;;;;;;0.36;47.06;101119.25;4960380;28;6780;-73
2024/01/21 02:56:22;;;;;;;;;;;;;;;0.44;47.00;101126.69;4954498;28;7041;-73
2024/01/21 02:58:50;;;;;;;;;;;;;;;0.55;47.24;101132.06;4964928;28;6871;-73
2024/01/21 03:01:16;;;;;;;;;;;;;;;0.69;47.21;101120.84;4931718;28;7042;-73
2024/01/21 03:03:42;;;;;;;;;;;;;;;0.82;46.65;101117.00;4948949;28;6872;-73
2024/01/21 03:06:07;;;;;;;;;;;;;;;0.94;46.58;101113.13;4946149;28;10548;-72
2024/01/21 03:08:33;;;;;;;;;;;;;;;1.02;46.26;101102.91;4968750;28;6792;-73
2024/01/21 03:10:58;;;;;;;;;;;;;;;1.05;46.52;101108.25;4964832;28;6847;-72
2024/01/21 03:13:24;;;;;;;;;;;;;;;1.09;46.26;101101.13;4953188;28;6791;-72
2024/01/21 03:15:49;;;;;;;;;;;;;;;1.14;45.85;101093.13;4952591;28;6927;-72
2024/01/21 03:18:15;;;;;;;;;;;;;;;1.18;46.38;101091.03;4951077;28;6764;-71
2024/01/21 03:20:41;;;;;;;;;;;;;;;1.27;45.47;101087.63;4967811;28;8222;-72
2024/01/21 03:23:06;;;;;;;;;;;;;;;1.33;45.75;101088.19;4968160;28;7596;-72
2024/01/21 03:25:32;;;;;;;;;;;;;;;1.41;46.09;101087.28;4951825;28;7196;-73
2024/01/21 03:27:57;;;;;;;;;;;;;;;1.47;46.08;101085.38;4967407;28;6979;-71
2024/01/21 03:30:23;;;;;;;;;;;;;;;1.51;45.41;101084.91;4965092;28;6776;-72
2024/01/21 03:32:49;;;;;;;;;;;;;;;1.55;45.13;101078.50;4950246;28;7171;-71
2024/01/21 03:35:14;;;;;;;;;;;;;;;1.58;45.65;101075.38;4949228;28;6780;-72
2024/01/21 03:37:40;;;;;;;;;;;;;;;1.62;44.94;101075.81;4950752;28;6830;-73
2024/01/21 03:40:06;;;;;;;;;;;;;;;1.64;44.79;101065.84;4969504;28;6776;-72
2024/01/21 03:42:32;;;;;;;;;;;;;;;1.63;45.14;101064.97;4951811;28;6796;-73
2024/01/21 03:44:57;;;;;;;;;;;;;;;1.64;45.45;101063.31;4971816;28;6776;-72
2024/01/21 03:47:23;;;;;;;;;;;;;;;1.65;44.66;101065.13;4968984;28;6840;-73
2024/01/21 03:49:51;;;;;;;;;;;;;;;1.65;45.58;101072.69;4970736;28;6772;-72
2024/01/21 03:52:17;;;;;;;;;;;;;;;1.68;44.69;101062.88;4955762;28;6991;-73
2024/01/21 03:54:45;;;;;;;;;;;;;;;1.70;45.46;101056.31;4955118;28;6792;-72
2024/01/21 03:57:11;;;;;;;;;;;;;;;1.72;45.34;101064.06;4973728;28;6811;-73
2024/01/21 03:59:40;;;;;;;;;;;;;;;1.75;45.33;101065.25;4972200;28;6780;-73
2024/01/21 04:02:05;;;;;;;;;;;;;;;1.76;45.03;101074.59;4952357;28;7402;-73
2024/01/21 04:04:31;;;;;;;;;;;;;;;1.79;44.70;101057.19;4954624;28;6768;-73
2024/01/21 04:06:56;;;;;;;;;;;;;;;1.83;45.41;101060.00;4971570;28;7106;-74
2024/01/21 04:09:23;;;;;;;;;;;;;;;1.88;45.28;101048.69;4968325;28;6784;-71
2024/01/21 04:11:52;;;;;;;;;;;;;;;1.95;45.63;101053.56;4970219;28;6812;-72
2024/01/21 04:14:18;;;;;;;;;;;;;;;1.99;45.18;101050.56;4954678;28;6812;-72
2024/01/21 04:16:44;;;;;;;;;;;;;;;2.04;44.88;101049.38;4954444;28;7382;-73
2024/01/21 04:19:09;;;;;;;;;;;;;;;2.08;45.21;101042.97;4967364;28;6788;-73
2024/01/21 04:21:38;;;;;;;;;;;;;;;2.12;44.53;101050.06;4967929;28;6780;-73
2024/01/21 04:24:05;;;;;;;;;;;;;;;2.17;44.87;101032.78;4951501;28;8460;-73
2024/01/21 04:26:31;;;;;;;;;;;;;;;2.25;44.35;101041.06;4963314;28;6824;-73
2024/01/21 04:28:56;;;;;;;;;;;;;;;2.28;45.24;101029.59;4952884;28;6796;-73
2024/01/21 04:31:22;;;;;;;;;;;;;;;2.32;45.10;101030.78;4950114;28;6800;-73
2024/01/21 04:33:47;;;;;;;;;;;;;;;2.38;45.25;101025.38;4951624;28;6979;-74
2024/01/21 04:36:22;;;;;;;;;;;;;;;2.40;44.82;101014.66;4966427;28;7213;-73
2024/01/21 04:38:48;;;;;;;;;;;;;;;2.42;44.82;101017.31;4952268;28;6804;-73
2024/01/21 04:41:15;;;;;;;;;;;;;;;2.45;45.39;101010.88;4936513;28;7027;-73
2024/01/21 04:43:42;;;;;;;;;;;;;;;2.48;45.25;101013.72;4950801;28;6796;-73
2024/01/21 04:46:08;;;;;;;;;;;;;;;2.52;45.77;101012.34;4952944;28;6855;-73
2024/01/21 04:48:34;;;;;;;;;;;;;;;2.55;45.36;101016.78;4952041;28;7215;-73
2024/01/21 04:50:59;;;;;;;;;;;;;;;2.59;45.38;101032.38;4950079;28;7553;-73
2024/01/21 04:53:25;;;;;;;;;;;;;;;2.59;45.08;101034.91;4949665;28;6990;-73
2024/01/21 04:55:50;;;;;;;;;;;;;;;2.62;45.06;101026.69;4952591;28;7247;-73
2024/01/21 04:58:16;;;;;;;;;;;;;;;2.68;45.29;101036.50;4967358;28;6780;-73
2024/01/21 05:00:42;;;;;;;;;;;;;;;2.71;45.36;101014.00;4949188;28;6792;-73
2024/01/21 05:03:07;;;;;;;;;;;;;;;2.70;44.54;101028.28;4931319;28;7237;-73
2024/01/21 05:05:33;;;;;;;;;;;;;;;2.68;45.10;101027.25;4952004;28;6772;-73
2024/01/21 05:07:59;;;;;;;;;;;;;;;2.63;44.11;101031.91;4943054;28;7263;-73
2024/01/21 05:10:24;;;;;;;;;;;;;;;2.57;45.37;101033.88;4965740;28;6808;-74
2024/01/21 05:12:50;;;;;;;;;;;;;;;2.54;45.21;101030.19;4951701;28;6848;-73
2024/01/21 05:15:16;;;;;;;;;;;;;;;2.51;45.21;101018.13;4931440;28;8734;-73
2024/01/21 05:17:41;;;;;;;;;;;;;;;2.61;45.56;101008.13;4947479;28;6950;-73
2024/01/21 05:20:08;;;;;;;;;;;;;;;2.90;45.89;100991.19;4951581;28;7573;-73
2024/01/21 05:22:35;;;;;;;;;;;;;;;3.29;44.50;100982.75;4967468;28;6998;-74
2024/01/21 05:25:03;;;;;;;;;;;;;;;3.71;45.10;100972.72;4947389;28;7397;-74
2024/01/21 05:27:30;;;;;;;;;;;;;;;4.09;43.46;100967.47;4928876;28;7263;-73
2024/01/21 05:29:55;;;;;;;;;;;;;;;4.41;43.76;100943.88;4970691;28;6947;-73
2024/01/21 05:32:22;;;;;;;;;;;;;;;4.68;42.82;100938.34;4965556;28;7040;-73
2024/01/21 05:34:47;;;;;;;;;;;;;;;4.89;42.10;100925.59;4963101;28;6800;-73
2024/01/21 05:37:13;;;;;;;;;;;;;;;5.05;41.48;100920.06;4950995;28;6931;-72
2024/01/21 05:39:39;;;;;;;;;;;;;;;5.21;41.29;100919.59;4968709;28;7195;-73
2024/01/21 05:42:10;;;;;;;;;;;;;;;5.34;40.67;100927.41;4956968;28;8660;-73
2024/01/21 05:44:35;;;;;;;;;;;;;;;5.49;40.50;100939.53;4951714;28;7027;-72
2024/01/21 05:47:01;;;;;;;;;;;;;;;5.61;39.99;100935.41;4967549;28;7102;-73
2024/01/21 05:49:28;;;;;;;;;;;;;;;5.71;39.81;100949.69;4951399;28;6796;-72
2024/01/21 05:51:54;;;;;;;;;;;;;;;5.78;39.56;100948.50;4949262;28;7007;-72
2024/01/21 05:54:19;;;;;;;;;;;;;;;5.82;39.04;100936.13;4949821;28;6776;-72
2024/01/21 05:56:45;;;;;;;;;;;;;;;5.91;39.02;100930.88;4949831;28;6776;-72
2024/01/21 05:59:13;;;;;;;;;;;;;;;5.96;38.86;100929.53;4951230;28;6863;-73
2024/01/21 06:01:39;;;;;;;;;;;;;;;6.00;38.73;100925.56;4951456;28;7223;-71
2024/01/21 06:04:05;;;;;;;;;;;;;;;6.03;38.82;100924.97;4952066;28;7175;-71
2024/01/21 06:06:30;;;;;;;;;;;;;;;6.07;39.08;100922.75;4966400;28;6992;-71
2024/01/21 06:08:56;;;;;;;;;;;;;;;6.09;38.95;100917.78;4957178;28;6989;-71
2024/01/21 06:11:22;;;;;;;;;;;;;;;6.08;38.84;100896.53;4966828;28;6928;-72
2024/01/21 06:13:47;;;;;;;;;;;;;;;6.10;38.32;100889.88;4951373;28;7218;-73
2024/01/21 06:16:16;;;;;;;;;;;;;;;6.09;38.95;100898.31;4949919;28;6772;-72
2024/01/21 06:18:42;;;;;;;;;;;;;;;6.09;38.71;100880.47;4946966;28;6988;-73
2024/01/21 06:21:08;;;;;;;;;;;;;;;6.10;37.86;100878.84;4951712;28;6780;-72
2024/01/21 06:23:33;;;;;;;;;;;;;;;6.14;38.09;100877.41;4967504;28;6961;-71
2024/01/21 06:25:59;;;;;;;;;;;;;;;6.18;37.38;100875.19;4942784;28;9101;-72
2024/01/21 06:28:25;;;;;;;;;;;;;;;6.24;37.20;100890.91;4950373;28;6796;-72
2024/01/21 06:30:50;;;;;;;;;;;;;;;6.28;37.23;100902.19;4947369;28;6780;-72
2024/01/21 06:33:16;;;;;;;;;;;;;;;6.33;36.82;100917.81;4964671;28;7195;-72
2024/01/21 06:35:41;;;;;;;;;;;;;;;6.37;37.64;100932.53;4953947;28;6832;-73
2024/01/21 06:38:07;;;;;;;;;;;;;;;6.38;37.25;100939.44;4945586;28;6784;-78
2024/01/21 06:40:33;;;;;;;;;;;;;;;6.39;37.26;100931.00;4949610;28;6784;-75
2024/01/21 06:42:59;;;;;;;;;;;;;;;6.41;36.72;100948.91;4949105;28;7592;-78
2024/01/21 06:45:24;;;;;;;;;;;;;;;6.40;36.66;100953.16;4948179;28;6804;-75
2024/01/21 06:47:50;;;;;;;;;;;;;;;6.41;36.31;100964.19;4947512;28;6772;-78
2024/01/21 06:50:16;;;;;;;;;;;;;;;6.39;36.71;100966.66;4966772;28;6776;-77
2024/01/21 06:52:41;;;;;;;;;;;;;;;6.39;36.62;100964.09;4967649;28;6784;-78
2024/01/21 06:55:08;;;;;;;;;;;;;;;6.39;36.23;100985.34;4964081;28;6989;-78
2024/01/21 06:57:34;;;;;;;;;;;;;;;6.41;37.05;100977.84;4950353;28;7004;-77
2024/01/21 07:00:00;;;;;;;;;;;;;;;6.41;36.58;100980.38;4948032;28;6788;-78
2024/01/21 07:02:26;;;;;;;;;;;;;;;6.40;36.73;100970.97;4948645;28;7277;-77
2024/01/21 07:04:52;;;;;;;;;;;;;;;6.39;37.28;100989.56;4933934;28;8417;-76
2024/01/21 07:07:17;;;;;;;;;;;;;;;6.38;36.74;100991.22;4948599;28;6840;-76
2024/01/21 07:09:43;;;;;;;;;;;;;;;6.41;37.06;101004.94;4933892;28;6972;-75
2024/01/21 07:12:09;;;;;;;;;;;;;;;6.41;36.23;101005.84;4961489;28;6784;-77
2024/01/21 07:14:34;;;;;;;;;;;;;;;6.43;36.39;101004.28;4946448;28;6788;-76
2024/01/21 07:17:04;;;;;;;;;;;;;;;6.44;36.57;101016.25;4948282;28;6830;-77
2024/01/21 07:19:29;;;;;;;;;;;;;;;6.47;35.80;101031.78;4964999;28;7134;-76
2024/01/21 07:21:55;;;;;;;;;;;;;;;6.49;35.74;101021.69;4930803;28;8478;-73
2024/01/21 07:24:20;;;;;;;;;;;;;;;6.52;36.26;101034.66;4948488;28;6780;-76
2024/01/21 07:26:46;;;;;;;;;;;;;;;6.56;36.11;101051.94;4945706;28;6953;-76
2024/01/21 07:29:13;;;;;;;;;;;;;;;6.60;36.08;101048.84;4948226;28;6936;-76
2024/01/21 07:31:39;;;;;;;;;;;;;;;6.62;35.96;101048.97;4962433;28;9213;-76
2024/01/21 07:34:09;;;;;;;;;;;;;;;6.64;35.26;101057.59;4964846;28;6800;-76
2024/01/21 07:36:35;;;;;;;;;;;;;;;6.64;35.49;101044.84;4949092;28;6956;-77
2024/01/21 07:39:04;;;;;;;;;;;;;;;6.61;35.75;101031.91;4963209;28;7229;-78
2024/01/21 07:41:30;;;;;;;;;;;;;;;6.60;35.94;101027.59;4931808;28;7791;-73
2024/01/21 07:43:57;;;;;;;;;;;;;;;6.58;35.81;101026.59;4940298;28;7900;-75
2024/01/21 07:46:23;;;;;;;;;;;;;;;6.55;35.97;101013.59;4946788;28;7612;-74
2024/01/21 07:48:48;;;;;;;;;;;;;;;6.52;36.00;101009.19;4946210;28;7325;-74
2024/01/21 07:51:16;;;;;;;;;;;;;;;6.49;36.26;100998.75;4945577;28;8046;-74
2024/01/21 07:53:42;;;;;;;;;;;;;;;6.47;36.34;100990.13;4938180;28;7813;-74
2024/01/21 07:56:08;;;;;;;;;;;;;;;6.44;36.49;100972.97;4948065;28;6777;-74
2024/01/21 07:58:33;;;;;;;;;;;;;;;6.47;36.31;100972.31;4956258;28;8041;-73
2024/01/21 08:00:59;;;;;;;;;;;;;;;6.47;36.58;100951.94;4930716;28;6933;-73
2024/01/21 08:03:24;;;;;;;;;;;;;;;6.50;36.85;100941.97;4948353;28;6823;-73
2024/01/21 08:05:50;;;;;;;;;;;;;;;6.51;37.16;100954.81;4946620;28;6769;-73
2024/01/21 08:08:16;;;;;;;;;;;;;;;6.52;36.26;100959.13;4960605;28;7656;-74
2024/01/21 08:10:41;;;;;;;;;;;;;;;6.56;37.15;100959.34;4960722;28;6796;-73
2024/01/21 08:13:07;;;;;;;;;;;;;;;6.54;37.32;100959.25;4962507;28;7352;-73
2024/01/21 08:15:33;;;;;;;;;;;;;;;6.53;36.42;100955.81;4963781;28;6927;-73
2024/01/21 08:17:59;;;;;;;;;;;;;;;6.52;36.97;100943.84;4926941;28;8943;-74
2024/01/21 08:20:25;;;;;;;;;;;;;;;6.53;37.34;100937.09;4943870;28;6816;-74
2024/01/21 08:22:50;;;;;;;;;;;;;;;6.53;36.48;100920.16;4964701;28;6792;-74
2024/01/21 08:25:16;;;;;;;;;;;;;;;6.55;37.00;100911.72;4956162;28;8137;-74
2024/01/21 08:27:42;;;;;;;;;;;;;;;6.57;36.57;100951.81;4949070;28;7241;-74
2024/01/21 08:30:08;;;;;;;;;;;;;;;6.60;36.81;100979.19;4968849;28;6929;-74
2024/01/21 08:32:34;;;;;;;;;;;;;;;6.62;36.82;101013.28;4966169;28;6800;-74
2024/01/21 08:35:00;;;;;;;;;;;;;;;6.62;35.85;101020.94;4936662;28;6989;-74
2024/01/21 08:37:25;;;;;;;;;;;;;;;6.63;36.61;101038.91;4966811;28;6775;-74
2024/01/21 08:39:51;;;;;;;;;;;;;;;6.63;36.01;101060.91;4935505;28;7276;-74
2024/01/21 08:42:19;;;;;;;;;;;;;;;6.63;36.48;101054.19;4949120;28;6780;-74
2024/01/21 08:44:45;;;;;;;;;;;;;;;6.67;36.33;101055.28;4950440;28;7245;-74
2024/01/21 08:47:10;;;;;;;;;;;;;;;6.74;36.55;101033.72;4952483;28;6939;-74
2024/01/21 08:49:36;;;;;;;;;;;;;;;6.84;37.33;101041.25;4932465;28;6944;-74
2024/01/21 08:52:02;;;;;;;;;;;;;;;6.97;37.29;101034.50;4944692;28;7842;-74
2024/01/21 08:54:27;;;;;;;;;;;;;;;7.06;37.24;101033.50;4967201;28;7320;-74
2024/01/21 08:56:53;;;;;;;;;;;;;;;7.18;37.83;101017.31;4967295;28;6903;-78
2024/01/21 08:59:19;;;;;;;;;;;;;;;7.27;37.31;101023.06;4950588;28;6999;-78
2024/01/21 09:01:45;;;;;;;;;;;;;;;7.33;37.16;101023.50;4951541;28;6969;-78
2024/01/21 09:04:10;;;;;;;;;;;;;;;7.39;37.09;101032.38;4951808;28;6784;-77
2024/01/21 09:06:41;;;;;;;;;;;;;;;7.43;37.47;101053.09;4951255;28;7193;-74
2024/01/21 09:09:11;;;;;;;;;;;;;;;7.46;37.89;101048.22;4935247;28;6855;-77
2024/01/21 09:11:40;;;;;;;;;;;;;;;7.56;37.15;101046.31;4950942;28;6990;-77
2024/01/21 09:14:06;;;;;;;;;;;;;;;7.68;38.23;101039.53;4949781;28;7111;-78
2024/01/21 09:16:35;;;;;;;;;;;;;;;7.87;38.63;101053.53;4950175;28;6840;-78
2024/01/21 09:19:02;;;;;;;;;;;;;;;8.12;38.30;101057.81;4967581;28;7008;-78
2024/01/21 09:21:28;;;;;;;;;;;;;;;8.34;37.58;101045.69;4939599;28;8691;-73
2024/01/21 09:23:55;;;;;;;;;;;;;;;8.48;37.92;101058.53;4940526;28;7086;-76
2024/01/21 09:26:21;;;;;;;;;;;;;;;8.55;37.15;101055.66;4956507;28;7010;-84
2024/01/21 09:28:46;;;;;;;;;;;;;;;8.61;37.59;101075.59;4956962;28;6804;-75
2024/01/21 09:31:12;;;;;;;;;;;;;;;8.64;37.82;101074.91;4927986;28;9256;-78
2024/01/21 09:33:38;;;;;;;;;;;;;;;8.69;37.45;101081.22;4929001;28;6985;-81
2024/01/21 09:36:04;;;;;;;;;;;;;;;8.77;37.80;101056.16;4951174;28;6929;-80
2024/01/21 09:38:29;;;;;;;;;;;;;;;8.80;37.38;101067.47;4928809;28;7252;-76
2024/01/21 09:41:21;;;;;;;;;;;;;;;8.82;38.32;101047.13;4945361;28;6776;-75
2024/01/21 09:43:47;;;;;;;;;;;;;;;8.81;38.12;101056.47;4932067;28;7221;-79
2024/01/21 09:46:13;;;;;;;;;;;;;;;8.83;38.42;101054.00;4949892;28;7256;-81
2024/01/21 09:48:39;;;;;;;;;;;;;;;8.88;38.58;101053.53;4948445;28;6849;-80
2024/01/21 09:51:06;;;;;;;;;;;;;;;8.94;38.85;101045.38;4950918;28;7445;-79
2024/01/21 09:53:33;;;;;;;;;;;;;;;8.98;38.83;101034.56;4950447;28;6950;-74
2024/01/21 09:56:07;;;;;;;;;;;;;;;9.03;38.77;101051.09;4946951;28;6923;-75
2024/01/21 09:58:54;;;;;;;;;;;;;;;9.07;39.33;101057.28;4949836;28;7013;-75
2024/01/21 10:01:21;;;;;;;;;;;;;;;9.10;38.81;101051.50;4944178;28;7258;-78
2024/01/21 10:03:47;;;;;;;;;;;;;;;9.14;39.18;101048.31;4925685;28;7815;-76
2024/01/21 10:06:13;;;;;;;;;;;;;;;9.20;39.35;101069.19;4928141;28;7341;-74
2024/01/21 10:08:40;;;;;;;;;;;;;;;9.27;40.02;101061.13;4939667;28;7576;-73
2024/01/21 10:11:07;;;;;;;;;;;;;;;9.35;39.92;101063.28;4941111;28;7716;-73
2024/01/21 10:13:36;;;;;;;;;;;;;;;9.36;39.76;101059.91;4948825;28;7268;-73
2024/01/21 10:16:02;;;;;;;;;;;;;;;9.38;40.15;101053.25;4947563;28;7163;-73
2024/01/21 10:18:28;;;;;;;;;;;;;;;9.39;40.05;101080.59;4952271;28;7926;-73
2024/01/21 10:20:57;;;;;;;;;;;;;;;9.36;39.84;101068.50;4964062;28;7121;-73
2024/01/21 10:23:22;;;;;;;;;;;;;;;9.35;40.13;101064.16;4947848;28;6879;-73
2024/01/21 10:25:48;;;;;;;;;;;;;;;9.31;39.91;101064.75;4966083;28;6995;-73
2024/01/21 10:28:15;;;;;;;;;;;;;;;9.28;40.08;101056.88;4932536;28;7390;-73
2024/01/21 10:30:44;;;;;;;;;;;;;;;9.25;40.48;101078.03;4947877;28;7041;-74
2024/01/21 10:33:10;;;;;;;;;;;;;;;9.21;41.02;101077.72;4967037;28;6800;-74
2024/01/21 10:35:36;;;;;;;;;;;;;;;9.19;40.71;101064.88;4961944;28;7857;-74
2024/01/21 10:38:05;;;;;;;;;;;;;;;9.15;41.06;101070.56;4942253;28;6824;-74
2024/01/21 10:40:32;;;;;;;;;;;;;;;9.13;41.95;101061.91;4962773;28;8108;-74
2024/01/21 10:42:59;;;;;;;;;;;;;;;9.13;42.03;101056.78;4940140;28;7763;-74
2024/01/21 10:45:26;;;;;;;;;;;;;;;9.10;42.27;101052.34;4946282;28;6876;-74
2024/01/21 10:47:53;;;;;;;;;;;;;;;9.07;42.62;101052.16;4947965;28;6869;-74
2024/01/21 10:50:21;;;;;;;;;;;;;;;9.05;43.33;101057.97;4938731;28;7054;-74
2024/01/21 10:52:48;;;;;;;;;;;;;;;9.02;43.54;101051.88;4948033;28;7358;-74
2024/01/21 10:55:14;;;;;;;;;;;;;;;9.01;43.50;101064.53;4946297;28;6780;-74
2024/01/21 10:57:40;;;;;;;;;;;;;;;9.06;43.57;101072.50;4942237;28;6969;-75
2024/01/21 11:00:09;;;;;;;;;;;;;;;9.08;43.95;101063.25;4964550;28;6788;-74
2024/01/21 11:02:35;;;;;;;;;;;;;;;9.12;44.52;101066.13;4964682;28;12832;-74
2024/01/21 11:05:01;;;;;;;;;;;;;;;9.20;43.82;101055.50;4943903;28;6962;-74
2024/01/21 11:07:27;;;;;;;;;;;;;;;9.27;43.75;101044.88;4942123;28;7039;-75
2024/01/21 11:09:57;;;;;;;;;;;;;;;9.33;44.45;101041.81;4948274;28;7894;-75
2024/01/21 11:12:23;;;;;;;;;;;;;;;9.40;43.79;101041.44;4964058;28;7131;-74
2024/01/21 11:14:49;;;;;;;;;;;;;;;9.46;44.27;101046.91;4961995;28;6884;-74
2024/01/21 11:17:22;;;;;;;;;;;;;;;9.53;43.50;101036.28;4947808;28;6998;-75
2024/01/21 11:19:47;;;;;;;;;;;;;;;9.58;43.60;101037.47;4947717;28;6808;-75
2024/01/21 11:22:15;;;;;;;;;;;;;;;9.64;43.78;101025.81;4964879;28;7031;-75
2024/01/21 11:24:42;;;;;;;;;;;;;;;9.67;43.70;101021.78;4944622;28;6804;-75
2024/01/21 11:27:24;;;;;;;;;;;;;;;9.69;43.70;101025.31;4947600;28;8326;-76
2024/01/21 11:30:01;;;;;;;;;;;;;;;9.71;43.52;101002.38;4948664;28;8143;-74
2024/01/21 11:32:30;;;;;;;;;;;;;;;9.76;43.70;101011.25;4962740;28;6824;-75
2024/01/21 11:35:09;;;;;;;;;;;;;;;9.77;43.78;101013.00;4947971;28;6967;-74
2024/01/21 11:37:36;;;;;;;;;;;;;;;9.76;43.66;100998.44;4947141;28;7066;-74
2024/01/21 11:40:03;;;;;;;;;;;;;;;9.77;44.15;100984.84;4941636;28;6796;-74
2024/01/21 11:42:32;;;;;;;;;;;;;;;9.77;43.96;101004.44;4948298;28;6804;-74
2024/01/21 11:45:03;;;;;;;;;;;;;;;9.75;43.95;100972.75;4927222;28;6985;-74
2024/01/21 11:47:29;;;;;;;;;;;;;;;9.73;44.17;101001.69;4925493;28;7075;-74
2024/01/21 11:49:54;;;;;;;;;;;;;;;9.72;44.23;100999.03;4945177;28;6844;-75
2024/01/21 11:52:20;;;;;;;;;;;;;;;9.73;44.45;100985.44;4964626;28;6776;-74
2024/01/21 11:54:48;;;;;;;;;;;;;;;9.75;44.26;100988.97;4963802;28;7252;-74
2024/01/21 11:57:14;;;;;;;;;;;;;;;9.77;44.38;100977.16;4946754;28;7059;-74
2024/01/21 11:59:39;;;;;;;;;;;;;;;9.79;44.54;100988.38;4962851;28;6969;-74
2024/01/21 12:02:08;;;;;;;;;;;;;;;9.83;44.73;100997.13;4949234;28;7046;-74
2024/01/21 12:04:34;;;;;;;;;;;;;;;9.90;45.30;100989.03;4965636;28;6796;-74
2024/01/21 12:07:01;;;;;;;;;;;;;;;10.00;45.31;100991.34;4967382;28;7160;-74
2024/01/21 12:09:28;;;;;;;;;;;;;;;10.15;44.92;100995.59;4950592;28;7011;-74
2024/01/21 12:11:54;;;;;;;;;;;;;;;10.27;44.44;100998.00;4969165;28;6939;-73
2024/01/21 12:14:23;;;;;;;;;;;;;;;10.33;44.53;100985.53;4963447;28;7243;-74
2024/01/21 12:16:51;;;;;;;;;;;;;;;10.37;44.28;100992.63;4950182;28;7253;-74
2024/01/21 12:19:17;;;;;;;;;;;;;;;10.39;44.29;100979.91;4931336;28;6983;-74
2024/01/21 12:21:44;;;;;;;;;;;;;;;10.38;44.11;100968.78;4967012;28;6780;-74
2024/01/21 12:24:10;;;;;;;;;;;;;;;10.33;44.49;100970.16;4951886;28;6796;-73
2024/01/21 12:26:35;;;;;;;;;;;;;;;10.27;44.04;100978.38;4949990;28;6836;-74
2024/01/21 12:29:08;;;;;;;;;;;;;;;10.20;44.39;100980.50;4947407;28;7279;-76
2024/01/21 12:31:37;;;;;;;;;;;;;;;10.13;44.57;100986.97;4976980;28;6959;-74
2024/01/21 12:34:11;;;;;;;;;;;;;;;10.07;44.78;100974.66;4942690;28;7265;-74
2024/01/21 12:36:41;;;;;;;;;;;;;;;10.05;44.63;100980.50;4958781;28;7203;-74
2024/01/21 12:39:12;;;;;;;;;;;;;;;10.01;44.95;100989.66;4975454;28;6808;-74
2024/01/21 12:41:38;;;;;;;;;;;;;;;10.00;44.68;100967.41;4974132;28;6914;-74
2024/01/21 12:44:04;;;;;;;;;;;;;;;9.99;45.31;100993.81;4937474;28;6983;-75
2024/01/21 12:46:31;;;;;;;;;;;;;;;9.99;45.64;100988.69;4975988;28;6773;-75
2024/01/21 12:48:56;;;;;;;;;;;;;;;10.02;45.52;100977.75;4957627;28;6981;-73
2024/01/21 12:51:22;;;;;;;;;;;;;;;10.06;45.38;100970.34;4956676;28;7067;-74